sensor_id;sensor_type;location;lat;lon;timestamp;pressure;altitude;pressure_sealevel;temperature;humidity
68889;BME280;55930;47.412;8.790;2023-08-30T00:00:40;94316.41;;;10.66;100.00
68889;BME280;55930;47.412;8.790;2023-08-30T00:04:03;94325.63;;;10.70;100.00
68889;BME280;55930;47.412;8.790;2023-08-30T00:07:25;94313.97;;;10.83;100.00
68889;BME280;55930;47.412;8.790;2023-08-30T00:10:46;94316.94;;;10.70;100.00
68889;BME280;55930;47.412;8.790;2023-08-30T00:14:07;94316.28;;;10.75;100.00
68889;BME280;55930;47.412;8.790;2023-08-30T00:17:27;94312.22;;;10.80;100.00
68889;BME280;55930;47.412;8.790;2023-08-30T00:20:48;94319.91;;;10.78;100.00
68889;BME280;55930;47.412;8.790;2023-08-30T00:24:08;94317.06;;;10.81;100.00
68889;BME280;55930;47.412;8.790;2023-08-30T00:27:29;94316.88;;;10.64;100.00
68889;BME280;55930;47.412;8.790;2023-08-30T00:30:54;94312.38;;;10.70;100.00
68889;BME280;55930;47.412;8.790;2023-08-30T00:34:15;94310.97;;;10.75;100.00
68889;BME280;55930;47.412;8.790;2023-08-30T00:37:35;94301.97;;;10.67;100.00
68889;BME280;55930;47.412;8.790;2023-08-30T00:40:56;94295.38;;;10.62;100.00
68889;BME280;55930;47.412;8.790;2023-08-30T00:44:16;94303.28;;;10.77;100.00
68889;BME280;55930;47.412;8.790;2023-08-30T00:47:36;94298.38;;;10.70;100.00
68889;BME280;55930;47.412;8.790;2023-08-30T00:50:57;94301.91;;;10.61;100.00
68889;BME280;55930;47.412;8.790;2023-08-30T00:54:17;94294.94;;;10.64;100.00
68889;BME280;55930;47.412;8.790;2023-08-30T00:57:38;94295.19;;;10.66;100.00
68889;BME280;55930;47.412;8.790;2023-08-30T01:01:01;94296.06;;;10.57;100.00
68889;BME280;55930;47.412;8.790;2023-08-30T01:04:21;94289.94;;;10.71;100.00
68889;BME280;55930;47.412;8.790;2023-08-30T01:07:43;94292.53;;;10.66;100.00
68889;BME280;55930;47.412;8.790;2023-08-30T01:15:06;94287.25;;;10.66;100.00
68889;BME280;55930;47.412;8.790;2023-08-30T01:18:32;94279.75;;;10.64;100.00
68889;BME280;55930;47.412;8.790;2023-08-30T01:22:17;94272.97;;;10.63;100.00
68889;BME280;55930;47.412;8.790;2023-08-30T01:29:16;94274.44;;;10.64;100.00
68889;BME280;55930;47.412;8.790;2023-08-30T01:32:39;94273.59;;;10.53;100.00
68889;BME280;55930;47.412;8.790;2023-08-30T01:36:01;94271.31;;;10.66;100.00
68889;BME280;55930;47.412;8.790;2023-08-30T01:39:26;94273.50;;;10.67;100.00
68889;BME280;55930;47.412;8.790;2023-08-30T01:42:50;94275.16;;;10.65;100.00
68889;BME280;55930;47.412;8.790;2023-08-30T01:46:11;94269.25;;;10.55;100.00
68889;BME280;55930;47.412;8.790;2023-08-30T01:49:33;94262.69;;;10.71;100.00
68889;BME280;55930;47.412;8.790;2023-08-30T01:52:54;94267.22;;;10.65;100.00
68889;BME280;55930;47.412;8.790;2023-08-30T01:56:16;94270.00;;;10.56;100.00
68889;BME280;55930;47.412;8.790;2023-08-30T01:59:39;94267.81;;;10.54;100.00
68889;BME280;55930;47.412;8.790;2023-08-30T02:02:59;94261.13;;;10.59;100.00
68889;BME280;55930;47.412;8.790;2023-08-30T02:06:33;94263.22;;;10.55;100.00
68889;BME280;55930;47.412;8.790;2023-08-30T02:10:02;94264.41;;;10.54;100.00
68889;BME280;55930;47.412;8.790;2023-08-30T02:13:25;94261.25;;;10.50;100.00
68889;BME280;55930;47.412;8.790;2023-08-30T02:16:48;94256.47;;;10.54;100.00
68889;BME280;55930;47.412;8.790;2023-08-30T02:20:11;94256.72;;;10.56;100.00
68889;BME280;55930;47.412;8.790;2023-08-30T02:23:34;94250.91;;;10.31;100.00
68889;BME280;55930;47.412;8.790;2023-08-30T02:26:56;94248.47;;;10.28;100.00
68889;BME280;55930;47.412;8.790;2023-08-30T02:30:16;94251.72;;;10.38;100.00
68889;BME280;55930;47.412;8.790;2023-08-30T02:33:39;94237.09;;;10.48;100.00
68889;BME280;55930;47.412;8.790;2023-08-30T02:37:00;94243.16;;;10.48;100.00
68889;BME280;55930;47.412;8.790;2023-08-30T02:40:22;94243.03;;;10.37;100.00
68889;BME280;55930;47.412;8.790;2023-08-30T02:43:43;94245.41;;;10.35;100.00
68889;BME280;55930;47.412;8.790;2023-08-30T02:47:03;94244.13;;;10.30;100.00
68889;BME280;55930;47.412;8.790;2023-08-30T02:50:26;94242.13;;;10.46;100.00
68889;BME280;55930;47.412;8.790;2023-08-30T02:53:46;94240.41;;;10.63;100.00
68889;BME280;55930;47.412;8.790;2023-08-30T02:57:08;94243.38;;;10.70;100.00
68889;BME280;55930;47.412;8.790;2023-08-30T03:00:30;94236.06;;;10.60;100.00
68889;BME280;55930;47.412;8.790;2023-08-30T03:03:51;94241.47;;;10.71;100.00
68889;BME280;55930;47.412;8.790;2023-08-30T03:07:11;94248.63;;;10.65;100.00
68889;BME280;55930;47.412;8.790;2023-08-30T03:10:32;94237.50;;;10.61;100.00
68889;BME280;55930;47.412;8.790;2023-08-30T03:13:55;94234.13;;;10.60;100.00
68889;BME280;55930;47.412;8.790;2023-08-30T03:17:16;94229.94;;;10.54;100.00
68889;BME280;55930;47.412;8.790;2023-08-30T03:20:36;94232.34;;;10.31;100.00
68889;BME280;55930;47.412;8.790;2023-08-30T03:23:57;94226.22;;;10.46;100.00
68889;BME280;55930;47.412;8.790;2023-08-30T03:27:17;94238.38;;;10.32;100.00
68889;BME280;55930;47.412;8.790;2023-08-30T03:30:39;94233.41;;;10.40;100.00
68889;BME280;55930;47.412;8.790;2023-08-30T03:34:00;94230.09;;;10.24;100.00
68889;BME280;55930;47.412;8.790;2023-08-30T03:37:22;94238.38;;;10.32;100.00
68889;BME280;55930;47.412;8.790;2023-08-30T03:40:43;94231.22;;;10.38;100.00
68889;BME280;55930;47.412;8.790;2023-08-30T03:44:03;94231.47;;;10.40;100.00
68889;BME280;55930;47.412;8.790;2023-08-30T03:47:24;94234.41;;;10.42;100.00
68889;BME280;55930;47.412;8.790;2023-08-30T03:50:46;94231.53;;;10.46;100.00
68889;BME280;55930;47.412;8.790;2023-08-30T03:54:07;94243.59;;;10.47;100.00
68889;BME280;55930;47.412;8.790;2023-08-30T03:57:33;94242.88;;;10.46;100.00
68889;BME280;55930;47.412;8.790;2023-08-30T04:00:54;94245.47;;;10.41;100.00
68889;BME280;55930;47.412;8.790;2023-08-30T04:04:15;94248.25;;;10.31;100.00
68889;BME280;55930;47.412;8.790;2023-08-30T04:07:36;94242.94;;;10.31;100.00
68889;BME280;55930;47.412;8.790;2023-08-30T04:10:58;94240.03;;;10.29;100.00
68889;BME280;55930;47.412;8.790;2023-08-30T04:14:19;94236.72;;;10.34;100.00
68889;BME280;55930;47.412;8.790;2023-08-30T04:17:39;94236.44;;;10.32;100.00
68889;BME280;55930;47.412;8.790;2023-08-30T04:20:59;94236.50;;;10.38;100.00
68889;BME280;55930;47.412;8.790;2023-08-30T04:24:22;94234.53;;;10.33;100.00
68889;BME280;55930;47.412;8.790;2023-08-30T04:27:42;94227.03;;;10.31;100.00
68889;BME280;55930;47.412;8.790;2023-08-30T04:31:03;94228.75;;;10.55;100.00
68889;BME280;55930;47.412;8.790;2023-08-30T04:34:23;94232.06;;;10.50;100.00
68889;BME280;55930;47.412;8.790;2023-08-30T04:37:43;94233.00;;;10.47;100.00
68889;BME280;55930;47.412;8.790;2023-08-30T04:41:04;94236.78;;;10.60;100.00
68889;BME280;55930;47.412;8.790;2023-08-30T04:44:24;94232.47;;;10.43;100.00
68889;BME280;55930;47.412;8.790;2023-08-30T04:47:47;94231.53;;;10.46;100.00
68889;BME280;55930;47.412;8.790;2023-08-30T04:51:08;94235.53;;;10.35;100.00
68889;BME280;55930;47.412;8.790;2023-08-30T04:54:30;94235.81;;;10.38;100.00
68889;BME280;55930;47.412;8.790;2023-08-30T04:57:51;94234.84;;;10.41;100.00
68889;BME280;55930;47.412;8.790;2023-08-30T05:01:11;94237.25;;;10.39;100.00
68889;BME280;55930;47.412;8.790;2023-08-30T05:04:33;94242.63;;;10.44;100.00
68889;BME280;55930;47.412;8.790;2023-08-30T05:07:53;94243.50;;;10.35;100.00
68889;BME280;55930;47.412;8.790;2023-08-30T05:11:14;94242.34;;;10.42;100.00
68889;BME280;55930;47.412;8.790;2023-08-30T05:14:34;94235.00;;;10.52;100.00
68889;BME280;55930;47.412;8.790;2023-08-30T05:17:54;94237.66;;;10.52;100.00
68889;BME280;55930;47.412;8.790;2023-08-30T05:21:17;94227.41;;;10.65;100.00
68889;BME280;55930;47.412;8.790;2023-08-30T05:24:38;94238.41;;;10.78;100.00
68889;BME280;55930;47.412;8.790;2023-08-30T05:27:58;94232.91;;;10.82;100.00
68889;BME280;55930;47.412;8.790;2023-08-30T05:31:19;94234.22;;;10.92;100.00
68889;BME280;55930;47.412;8.790;2023-08-30T05:34:39;94232.53;;;10.94;100.00
68889;BME280;55930;47.412;8.790;2023-08-30T05:37:59;94243.00;;;11.03;100.00
68889;BME280;55930;47.412;8.790;2023-08-30T05:41:20;94236.06;;;11.11;100.00
68889;BME280;55930;47.412;8.790;2023-08-30T05:44:40;94241.69;;;11.19;100.00
68889;BME280;55930;47.412;8.790;2023-08-30T05:48:01;94237.66;;;11.24;100.00
68889;BME280;55930;47.412;8.790;2023-08-30T05:51:21;94241.13;;;11.09;100.00
68889;BME280;55930;47.412;8.790;2023-08-30T05:54:42;94236.41;;;10.93;100.00
68889;BME280;55930;47.412;8.790;2023-08-30T05:58:05;94248.09;;;10.81;100.00
68889;BME280;55930;47.412;8.790;2023-08-30T06:01:25;94250.81;;;11.12;100.00
68889;BME280;55930;47.412;8.790;2023-08-30T06:04:46;94242.06;;;11.32;100.00
68889;BME280;55930;47.412;8.790;2023-08-30T06:08:06;94243.59;;;11.44;100.00
68889;BME280;55930;47.412;8.790;2023-08-30T06:11:28;94251.56;;;11.44;100.00
68889;BME280;55930;47.412;8.790;2023-08-30T06:14:48;94256.31;;;11.66;100.00
68889;BME280;55930;47.412;8.790;2023-08-30T06:18:12;94255.44;;;11.75;100.00
68889;BME280;55930;47.412;8.790;2023-08-30T06:21:32;94247.31;;;11.89;100.00
68889;BME280;55930;47.412;8.790;2023-08-30T06:24:53;94247.56;;;11.92;100.00
68889;BME280;55930;47.412;8.790;2023-08-30T06:28:13;94240.38;;;11.66;100.00
68889;BME280;55930;47.412;8.790;2023-08-30T06:31:36;94241.91;;;12.15;100.00
68889;BME280;55930;47.412;8.790;2023-08-30T06:34:57;94224.94;;;12.02;100.00
68889;BME280;55930;47.412;8.790;2023-08-30T06:38:18;94223.09;;;12.19;100.00
68889;BME280;55930;47.412;8.790;2023-08-30T06:41:38;94229.28;;;12.53;100.00
68889;BME280;55930;47.412;8.790;2023-08-30T06:44:58;94226.13;;;12.54;100.00
68889;BME280;55930;47.412;8.790;2023-08-30T06:48:19;94224.78;;;12.98;100.00
68889;BME280;55930;47.412;8.790;2023-08-30T06:51:39;94232.59;;;13.57;100.00
68889;BME280;55930;47.412;8.790;2023-08-30T06:55:00;94209.09;;;13.67;100.00
68889;BME280;55930;47.412;8.790;2023-08-30T06:58:20;94204.97;;;13.66;100.00
68889;BME280;55930;47.412;8.790;2023-08-30T07:01:40;94199.19;;;13.45;100.00
68889;BME280;55930;47.412;8.790;2023-08-30T07:05:01;94187.56;;;13.54;100.00
68889;BME280;55930;47.412;8.790;2023-08-30T07:08:21;94189.22;;;13.79;100.00
68889;BME280;55930;47.412;8.790;2023-08-30T07:11:45;94187.03;;;13.89;100.00
68889;BME280;55930;47.412;8.790;2023-08-30T07:15:06;94174.03;;;14.26;100.00
68889;BME280;55930;47.412;8.790;2023-08-30T07:18:27;94144.56;;;14.60;100.00
68889;BME280;55930;47.412;8.790;2023-08-30T07:21:47;94137.28;;;15.25;100.00
68889;BME280;55930;47.412;8.790;2023-08-30T07:25:08;94130.72;;;15.56;100.00
68889;BME280;55930;47.412;8.790;2023-08-30T07:28:31;94118.66;;;15.44;100.00
68889;BME280;55930;47.412;8.790;2023-08-30T07:31:52;94126.03;;;15.32;100.00
68889;BME280;55930;47.412;8.790;2023-08-30T07:35:13;94122.53;;;15.73;100.00
68889;BME280;55930;47.412;8.790;2023-08-30T07:38:36;94114.94;;;16.01;100.00
68889;BME280;55930;47.412;8.790;2023-08-30T07:41:56;94116.31;;;17.15;100.00
68889;BME280;55930;47.412;8.790;2023-08-30T07:45:17;94082.16;;;18.47;90.71
68889;BME280;55930;47.412;8.790;2023-08-30T07:48:39;94062.34;;;18.92;84.35
68889;BME280;55930;47.412;8.790;2023-08-30T07:52:01;94076.06;;;16.70;89.39
68889;BME280;55930;47.412;8.790;2023-08-30T07:55:21;94100.75;;;17.13;91.23
68889;BME280;55930;47.412;8.790;2023-08-30T07:58:44;94090.75;;;17.14;90.61
68889;BME280;55930;47.412;8.790;2023-08-30T08:02:05;94090.59;;;17.38;89.79
68889;BME280;55930;47.412;8.790;2023-08-30T08:05:27;94080.84;;;16.77;87.10
68889;BME280;55930;47.412;8.790;2023-08-30T08:08:48;94078.53;;;17.58;86.33
68889;BME280;55930;47.412;8.790;2023-08-30T08:12:08;94075.69;;;17.69;85.44
68889;BME280;55930;47.412;8.790;2023-08-30T08:15:30;94073.03;;;18.16;84.31
68889;BME280;55930;47.412;8.790;2023-08-30T08:18:53;94071.09;;;17.90;83.84
68889;BME280;55930;47.412;8.790;2023-08-30T08:22:14;94072.44;;;17.97;81.90
68889;BME280;55930;47.412;8.790;2023-08-30T08:25:34;94072.34;;;17.89;78.80
68889;BME280;55930;47.412;8.790;2023-08-30T08:28:55;94080.97;;;18.35;79.94
68889;BME280;55930;47.412;8.790;2023-08-30T08:32:15;94077.28;;;17.46;79.17
68889;BME280;55930;47.412;8.790;2023-08-30T08:35:36;94073.41;;;18.33;78.65
68889;BME280;55930;47.412;8.790;2023-08-30T08:38:56;94072.22;;;18.55;78.56
68889;BME280;55930;47.412;8.790;2023-08-30T08:42:19;94075.41;;;19.08;76.81
68889;BME280;55930;47.412;8.790;2023-08-30T08:45:40;94069.66;;;19.82;73.32
68889;BME280;55930;47.412;8.790;2023-08-30T08:49:02;94062.66;;;20.96;72.13
68889;BME280;55930;47.412;8.790;2023-08-30T08:52:25;94048.25;;;20.20;66.83
68889;BME280;55930;47.412;8.790;2023-08-30T08:55:48;94042.88;;;21.39;62.21
68889;BME280;55930;47.412;8.790;2023-08-30T08:59:09;94030.34;;;22.70;57.46
68889;BME280;55930;47.412;8.790;2023-08-30T09:02:29;94029.75;;;23.04;55.41
68889;BME280;55930;47.412;8.790;2023-08-30T09:05:50;94037.84;;;22.14;54.81
68889;BME280;55930;47.412;8.790;2023-08-30T09:09:11;94040.19;;;21.32;58.27
68889;BME280;55930;47.412;8.790;2023-08-30T09:12:32;94043.78;;;21.42;58.30
68889;BME280;55930;47.412;8.790;2023-08-30T09:15:54;94035.09;;;23.36;55.64
68889;BME280;55930;47.412;8.790;2023-08-30T09:19:20;94035.59;;;24.82;53.04
68889;BME280;55930;47.412;8.790;2023-08-30T09:22:41;94039.44;;;23.14;52.55
68889;BME280;55930;47.412;8.790;2023-08-30T09:26:02;94034.00;;;25.06;48.70
68889;BME280;55930;47.412;8.790;2023-08-30T09:29:23;94037.78;;;24.66;49.56
68889;BME280;55930;47.412;8.790;2023-08-30T09:32:43;94034.66;;;25.52;46.74
68889;BME280;55930;47.412;8.790;2023-08-30T09:36:09;94035.94;;;24.96;47.20
68889;BME280;55930;47.412;8.790;2023-08-30T09:39:30;94023.72;;;25.14;43.84
68889;BME280;55930;47.412;8.790;2023-08-30T09:42:53;94027.09;;;25.51;44.37
68889;BME280;55930;47.412;8.790;2023-08-30T09:46:14;94025.44;;;25.84;43.82
68889;BME280;55930;47.412;8.790;2023-08-30T09:49:55;94024.91;;;25.40;45.21
68889;BME280;55930;47.412;8.790;2023-08-30T09:53:17;94026.13;;;25.75;44.50
68889;BME280;55930;47.412;8.790;2023-08-30T09:56:40;94027.50;;;26.53;44.12
68889;BME280;55930;47.412;8.790;2023-08-30T10:00:02;94019.81;;;26.31;41.97
68889;BME280;55930;47.412;8.790;2023-08-30T10:03:26;94010.91;;;26.49;44.01
68889;BME280;55930;47.412;8.790;2023-08-30T10:06:47;94012.38;;;27.43;44.62
68889;BME280;55930;47.412;8.790;2023-08-30T10:10:08;94015.91;;;27.76;41.33
68889;BME280;55930;47.412;8.790;2023-08-30T10:13:29;94009.88;;;23.68;49.76
68889;BME280;55930;47.412;8.790;2023-08-30T10:16:51;94012.16;;;21.98;56.87
68889;BME280;55930;47.412;8.790;2023-08-30T10:20:18;94020.13;;;20.36;61.48
68889;BME280;55930;47.412;8.790;2023-08-30T10:23:39;94019.22;;;19.82;64.45
68889;BME280;55930;47.412;8.790;2023-08-30T10:27:03;94027.69;;;19.86;64.25
68889;BME280;55930;47.412;8.790;2023-08-30T10:30:25;94000.63;;;20.81;59.79
68889;BME280;55930;47.412;8.790;2023-08-30T10:33:55;94017.97;;;19.83;64.15
68889;BME280;55930;47.412;8.790;2023-08-30T10:37:22;94022.59;;;19.75;64.79
68889;BME280;55930;47.412;8.790;2023-08-30T10:40:45;94014.75;;;19.85;64.58
68889;BME280;55930;47.412;8.790;2023-08-30T10:44:05;94009.09;;;19.11;64.07
68889;BME280;55930;47.412;8.790;2023-08-30T10:47:30;94014.25;;;19.30;63.58
68889;BME280;55930;47.412;8.790;2023-08-30T10:50:51;94007.44;;;20.01;63.20
68889;BME280;55930;47.412;8.790;2023-08-30T10:54:15;94008.94;;;20.17;64.66
68889;BME280;55930;47.412;8.790;2023-08-30T10:57:40;93998.63;;;19.93;62.87
68889;BME280;55930;47.412;8.790;2023-08-30T11:01:01;94003.31;;;21.04;63.25
68889;BME280;55930;47.412;8.790;2023-08-30T11:04:24;93995.78;;;21.88;59.06
68889;BME280;55930;47.412;8.790;2023-08-30T11:07:45;93995.22;;;21.04;59.60
68889;BME280;55930;47.412;8.790;2023-08-30T11:11:10;94000.47;;;20.13;63.41
68889;BME280;55930;47.412;8.790;2023-08-30T11:14:34;93994.63;;;19.78;64.23
68889;BME280;55930;47.412;8.790;2023-08-30T11:18:02;94001.22;;;19.13;65.47
68889;BME280;55930;47.412;8.790;2023-08-30T11:21:25;94009.03;;;19.03;67.58
68889;BME280;55930;47.412;8.790;2023-08-30T11:24:47;94015.44;;;18.72;68.88
68889;BME280;55930;47.412;8.790;2023-08-30T11:28:08;94012.78;;;19.49;69.80
68889;BME280;55930;47.412;8.790;2023-08-30T11:31:28;94002.56;;;20.43;65.98
68889;BME280;55930;47.412;8.790;2023-08-30T11:34:56;93992.81;;;19.81;64.26
68889;BME280;55930;47.412;8.790;2023-08-30T11:38:19;93982.28;;;20.72;61.66
68889;BME280;55930;47.412;8.790;2023-08-30T11:41:43;93972.72;;;21.87;58.50
68889;BME280;55930;47.412;8.790;2023-08-30T11:45:04;93973.69;;;23.90;53.22
68889;BME280;55930;47.412;8.790;2023-08-30T11:48:24;93964.78;;;22.86;55.34
68889;BME280;55930;47.412;8.790;2023-08-30T11:51:46;93964.97;;;25.09;51.36
68889;BME280;55930;47.412;8.790;2023-08-30T11:55:07;93957.78;;;26.48;44.73
68889;BME280;55930;47.412;8.790;2023-08-30T11:58:27;93959.63;;;26.86;43.40
68889;BME280;55930;47.412;8.790;2023-08-30T12:01:48;93963.25;;;27.10;45.54
68889;BME280;55930;47.412;8.790;2023-08-30T12:05:15;93960.50;;;24.21;45.65
68889;BME280;55930;47.412;8.790;2023-08-30T12:08:36;93959.38;;;23.28;52.41
68889;BME280;55930;47.412;8.790;2023-08-30T12:12:09;93964.34;;;26.95;42.77
68889;BME280;55930;47.412;8.790;2023-08-30T12:15:29;93965.59;;;27.04;45.19
68889;BME280;55930;47.412;8.790;2023-08-30T12:18:54;93969.28;;;26.37;44.22
68889;BME280;55930;47.412;8.790;2023-08-30T12:22:15;93964.00;;;24.77;46.44
68889;BME280;55930;47.412;8.790;2023-08-30T12:25:35;93958.38;;;26.37;44.34
68889;BME280;55930;47.412;8.790;2023-08-30T12:28:56;93956.19;;;27.17;41.90
68889;BME280;55930;47.412;8.790;2023-08-30T12:32:16;93955.78;;;26.80;39.30
68889;BME280;55930;47.412;8.790;2023-08-30T12:35:37;93951.38;;;28.59;38.27
68889;BME280;55930;47.412;8.790;2023-08-30T12:38:57;93944.53;;;28.13;36.07
68889;BME280;55930;47.412;8.790;2023-08-30T12:42:18;93942.66;;;28.15;38.09
68889;BME280;55930;47.412;8.790;2023-08-30T12:45:41;93943.41;;;27.95;38.10
68889;BME280;55930;47.412;8.790;2023-08-30T12:49:01;93942.97;;;29.01;37.58
68889;BME280;55930;47.412;8.790;2023-08-30T12:52:22;93937.81;;;28.37;34.56
68889;BME280;55930;47.412;8.790;2023-08-30T12:55:43;93928.16;;;29.29;36.78
68889;BME280;55930;47.412;8.790;2023-08-30T12:59:04;93935.97;;;29.58;33.90
68889;BME280;55930;47.412;8.790;2023-08-30T13:02:24;93941.44;;;29.47;34.45
68889;BME280;55930;47.412;8.790;2023-08-30T13:05:45;93942.44;;;30.02;35.20
68889;BME280;55930;47.412;8.790;2023-08-30T13:09:05;93932.63;;;28.41;35.19
68889;BME280;55930;47.412;8.790;2023-08-30T13:12:25;93937.63;;;28.80;35.07
68889;BME280;55930;47.412;8.790;2023-08-30T13:15:46;93939.88;;;28.95;34.40
68889;BME280;55930;47.412;8.790;2023-08-30T13:19:06;93937.31;;;25.68;41.20
68889;BME280;55930;47.412;8.790;2023-08-30T13:22:27;93934.19;;;24.14;42.95
68889;BME280;55930;47.412;8.790;2023-08-30T13:25:48;93929.97;;;23.08;47.18
68889;BME280;55930;47.412;8.790;2023-08-30T13:29:09;93936.56;;;22.23;48.62
68889;BME280;55930;47.412;8.790;2023-08-30T13:32:29;93928.72;;;25.43;44.77
68889;BME280;55930;47.412;8.790;2023-08-30T13:35:50;93925.19;;;23.33;47.08
68889;BME280;55930;47.412;8.790;2023-08-30T13:39:11;93925.19;;;24.85;45.64
68889;BME280;55930;47.412;8.790;2023-08-30T13:42:32;93919.38;;;23.19;50.07
68889;BME280;55930;47.412;8.790;2023-08-30T13:45:57;93926.28;;;26.76;43.37
68889;BME280;55930;47.412;8.790;2023-08-30T13:49:20;93919.00;;;25.21;43.36
68889;BME280;55930;47.412;8.790;2023-08-30T13:52:40;93926.13;;;24.24;45.23
68889;BME280;55930;47.412;8.790;2023-08-30T13:56:05;93927.78;;;22.14;48.97
68889;BME280;55930;47.412;8.790;2023-08-30T13:59:26;93929.09;;;22.06;50.77
68889;BME280;55930;47.412;8.790;2023-08-30T14:02:49;93938.09;;;22.08;51.08
68889;BME280;55930;47.412;8.790;2023-08-30T14:06:11;93940.94;;;21.23;54.96
68889;BME280;55930;47.412;8.790;2023-08-30T14:09:32;93939.50;;;20.61;56.65
68889;BME280;55930;47.412;8.790;2023-08-30T14:12:54;93945.75;;;20.33;58.62
68889;BME280;55930;47.412;8.790;2023-08-30T14:16:15;93949.06;;;19.88;60.88
68889;BME280;55930;47.412;8.790;2023-08-30T14:19:35;93960.88;;;19.41;60.33
68889;BME280;55930;47.412;8.790;2023-08-30T14:22:56;93970.47;;;19.58;63.48
68889;BME280;55930;47.412;8.790;2023-08-30T14:26:19;93982.66;;;19.51;68.40
68889;BME280;55930;47.412;8.790;2023-08-30T14:29:39;93974.97;;;19.55;66.31
68889;BME280;55930;47.412;8.790;2023-08-30T14:32:59;93979.13;;;20.22;67.40
68889;BME280;55930;47.412;8.790;2023-08-30T14:36:20;93973.97;;;21.46;64.61
68889;BME280;55930;47.412;8.790;2023-08-30T14:39:43;93966.19;;;20.13;65.93
68889;BME280;55930;47.412;8.790;2023-08-30T14:43:04;93978.34;;;20.58;66.02
68889;BME280;55930;47.412;8.790;2023-08-30T14:46:24;93967.94;;;19.96;65.68
68889;BME280;55930;47.412;8.790;2023-08-30T14:49:45;93974.59;;;20.02;67.18
68889;BME280;55930;47.412;8.790;2023-08-30T14:53:06;93962.19;;;19.99;64.11
68889;BME280;55930;47.412;8.790;2023-08-30T14:56:26;93963.25;;;19.96;63.67
68889;BME280;55930;47.412;8.790;2023-08-30T14:59:47;93971.59;;;20.21;63.52
68889;BME280;55930;47.412;8.790;2023-08-30T15:03:08;93965.56;;;20.74;61.74
68889;BME280;55930;47.412;8.790;2023-08-30T15:06:28;93966.25;;;20.51;61.74
68889;BME280;55930;47.412;8.790;2023-08-30T15:09:49;93965.16;;;22.01;60.23
68889;BME280;55930;47.412;8.790;2023-08-30T15:13:09;93951.75;;;22.93;54.08
68889;BME280;55930;47.412;8.790;2023-08-30T15:16:30;93957.41;;;22.30;56.13
68889;BME280;55930;47.412;8.790;2023-08-30T15:19:53;93949.88;;;22.78;54.69
68889;BME280;55930;47.412;8.790;2023-08-30T15:23:14;93951.38;;;20.88;56.21
68889;BME280;55930;47.412;8.790;2023-08-30T15:26:38;93957.50;;;20.81;58.78
68889;BME280;55930;47.412;8.790;2023-08-30T15:29:59;93961.72;;;20.23;60.31
68889;BME280;55930;47.412;8.790;2023-08-30T15:33:19;93963.34;;;19.68;61.79
68889;BME280;55930;47.412;8.790;2023-08-30T15:36:39;93954.81;;;19.48;61.38
68889;BME280;55930;47.412;8.790;2023-08-30T15:40:01;93985.97;;;19.36;67.78
68889;BME280;55930;47.412;8.790;2023-08-30T15:43:28;93988.47;;;19.06;68.37
68889;BME280;55930;47.412;8.790;2023-08-30T15:46:48;94004.75;;;18.80;69.91
68889;BME280;55930;47.412;8.790;2023-08-30T15:50:09;94005.19;;;18.70;70.73
68889;BME280;55930;47.412;8.790;2023-08-30T15:53:30;94007.97;;;18.57;71.25
68889;BME280;55930;47.412;8.790;2023-08-30T15:56:51;94008.19;;;18.46;71.55
68889;BME280;55930;47.412;8.790;2023-08-30T16:00:11;94004.41;;;18.28;70.09
68889;BME280;55930;47.412;8.790;2023-08-30T16:03:32;94027.78;;;18.20;74.99
68889;BME280;55930;47.412;8.790;2023-08-30T16:06:55;94054.50;;;17.92;78.65
68889;BME280;55930;47.412;8.790;2023-08-30T16:10:16;94036.25;;;17.77;76.61
68889;BME280;55930;47.412;8.790;2023-08-30T16:13:38;94066.59;;;17.85;81.92
68889;BME280;55930;47.412;8.790;2023-08-30T16:16:59;94056.25;;;18.03;80.80
68889;BME280;55930;47.412;8.790;2023-08-30T16:20:20;94030.56;;;17.94;77.40
68889;BME280;55930;47.412;8.790;2023-08-30T16:23:40;94041.38;;;17.88;80.21
68889;BME280;55930;47.412;8.790;2023-08-30T16:27:01;94050.47;;;17.72;79.38
68889;BME280;55930;47.412;8.790;2023-08-30T16:30:22;94075.34;;;17.73;84.85
68889;BME280;55930;47.412;8.790;2023-08-30T16:33:43;94080.88;;;17.48;87.36
68889;BME280;55930;47.412;8.790;2023-08-30T16:37:03;94116.47;;;17.36;94.92
68889;BME280;55930;47.412;8.790;2023-08-30T16:40:24;94123.53;;;17.07;98.38
68889;BME280;55930;47.412;8.790;2023-08-30T16:43:44;94105.22;;;16.92;96.70
68889;BME280;55930;47.412;8.790;2023-08-30T16:47:04;94113.34;;;16.87;100.00
68889;BME280;55930;47.412;8.790;2023-08-30T16:50:25;94137.44;;;16.87;100.00
68889;BME280;55930;47.412;8.790;2023-08-30T16:53:45;94133.97;;;16.92;100.00
68889;BME280;55930;47.412;8.790;2023-08-30T16:57:06;94130.50;;;16.97;100.00
68889;BME280;55930;47.412;8.790;2023-08-30T17:00:29;94137.13;;;17.09;100.00
68889;BME280;55930;47.412;8.790;2023-08-30T17:03:49;94139.00;;;17.14;100.00
68889;BME280;55930;47.412;8.790;2023-08-30T17:07:09;94143.53;;;17.19;100.00
68889;BME280;55930;47.412;8.790;2023-08-30T17:10:30;94144.38;;;16.95;100.00
68889;BME280;55930;47.412;8.790;2023-08-30T17:13:50;94161.59;;;16.68;100.00
68889;BME280;55930;47.412;8.790;2023-08-30T17:17:11;94162.88;;;16.42;100.00
68889;BME280;55930;47.412;8.790;2023-08-30T17:20:31;94165.97;;;16.46;100.00
68889;BME280;55930;47.412;8.790;2023-08-30T17:23:52;94170.41;;;16.44;100.00
68889;BME280;55930;47.412;8.790;2023-08-30T17:27:14;94171.44;;;16.17;100.00
68889;BME280;55930;47.412;8.790;2023-08-30T17:30:35;94175.09;;;15.95;100.00
68889;BME280;55930;47.412;8.790;2023-08-30T17:33:57;94171.28;;;15.85;100.00
68889;BME280;55930;47.412;8.790;2023-08-30T17:37:20;94184.25;;;15.75;100.00
68889;BME280;55930;47.412;8.790;2023-08-30T17:40:41;94192.84;;;15.68;100.00
68889;BME280;55930;47.412;8.790;2023-08-30T17:44:01;94199.31;;;15.48;100.00
68889;BME280;55930;47.412;8.790;2023-08-30T17:47:22;94209.63;;;15.33;100.00